Terminal Aerodrome Forecast
Issued by NWS

Home | Current Version | Previous Version | Text Only | Print | Product List | Glossary On
Versions: 1 2 3 4 5 6 7 8 9 10 11 12 13 14 15 16 17 18 19 20 21 22 23 24 25 26 27 28
000
FTUS43 KJKL 101126 AAB
TAFSJS
TAF AMD
KSJS 101126Z 1011/1112 28008KT 4SM -RA BR OVC012
     FM102200 28006KT P6SM VCSH OVC028
     FM102300 28006KT P6SM OVC040
     FM110500 29006KT P6SM SCT060=

USA.gov is the U.S. government's official web portal to all federal, state and local government web resources and services.